sensor_id;sensor_type;location;lat;lon;timestamp;pressure;altitude;pressure_sealevel;temperature;humidity
44044;BME280;29709;52.396;16.796;2023-03-21T00:00:17;101658.41;;;10.87;74.08
44044;BME280;29709;52.396;16.796;2023-03-21T00:03:33;101657.71;;;10.85;74.22
44044;BME280;29709;52.396;16.796;2023-03-21T00:06:46;101657.86;;;10.84;74.62
44044;BME280;29709;52.396;16.796;2023-03-21T00:09:59;101659.86;;;10.82;74.31
44044;BME280;29709;52.396;16.796;2023-03-21T00:13:14;101657.41;;;10.79;74.44
44044;BME280;29709;52.396;16.796;2023-03-21T00:16:28;101662.36;;;10.75;74.49
44044;BME280;29709;52.396;16.796;2023-03-21T00:19:42;101667.12;;;10.73;74.39
44044;BME280;29709;52.396;16.796;2023-03-21T00:22:58;101660.63;;;10.74;74.78
44044;BME280;29709;52.396;16.796;2023-03-21T00:26:12;101658.16;;;10.71;74.54
44044;BME280;29709;52.396;16.796;2023-03-21T00:29:25;101653.52;;;10.72;74.70
44044;BME280;29709;52.396;16.796;2023-03-21T00:32:38;101651.23;;;10.67;75.46
44044;BME280;29709;52.396;16.796;2023-03-21T00:35:54;101658.47;;;10.68;74.99
44044;BME280;29709;52.396;16.796;2023-03-21T00:39:08;101658.47;;;10.68;75.49
44044;BME280;29709;52.396;16.796;2023-03-21T00:42:21;101653.68;;;10.70;75.22
44044;BME280;29709;52.396;16.796;2023-03-21T00:45:34;101646.75;;;10.66;75.11
44044;BME280;29709;52.396;16.796;2023-03-21T00:48:49;101653.85;;;10.59;74.71
44044;BME280;29709;52.396;16.796;2023-03-21T00:52:04;101663.69;;;10.52;75.18
44044;BME280;29709;52.396;16.796;2023-03-21T00:55:18;101654.17;;;10.46;75.24
44044;BME280;29709;52.396;16.796;2023-03-21T00:58:32;101653.00;;;10.49;75.78
44044;BME280;29709;52.396;16.796;2023-03-21T01:01:45;101645.46;;;10.51;75.55
44044;BME280;29709;52.396;16.796;2023-03-21T01:04:59;101648.22;;;10.51;75.49
44044;BME280;29709;52.396;16.796;2023-03-21T01:08:13;101658.49;;;10.49;75.39
44044;BME280;29709;52.396;16.796;2023-03-21T01:11:27;101657.33;;;10.51;75.30
44044;BME280;29709;52.396;16.796;2023-03-21T01:14:40;101663.84;;;10.50;75.06
44044;BME280;29709;52.396;16.796;2023-03-21T01:17:53;101663.43;;;10.45;74.79
44044;BME280;29709;52.396;16.796;2023-03-21T01:21:12;101663.73;;;10.42;74.60
44044;BME280;29709;52.396;16.796;2023-03-21T01:24:25;101658.50;;;10.39;75.06
44044;BME280;29709;52.396;16.796;2023-03-21T01:27:38;101655.77;;;10.39;75.08
44044;BME280;29709;52.396;16.796;2023-03-21T01:30:52;101656.77;;;10.38;74.78
44044;BME280;29709;52.396;16.796;2023-03-21T01:34:05;101653.88;;;10.30;74.93
44044;BME280;29709;52.396;16.796;2023-03-21T01:37:18;101654.18;;;10.27;75.38
44044;BME280;29709;52.396;16.796;2023-03-21T01:40:32;101660.69;;;10.26;75.44
44044;BME280;29709;52.396;16.796;2023-03-21T01:43:46;101652.30;;;10.27;75.21
44044;BME280;29709;52.396;16.796;2023-03-21T01:46:59;101654.63;;;10.32;75.26
44044;BME280;29709;52.396;16.796;2023-03-21T01:50:13;101650.98;;;10.31;75.42
44044;BME280;29709;52.396;16.796;2023-03-21T01:53:29;101651.28;;;10.38;74.85
44044;BME280;29709;52.396;16.796;2023-03-21T01:56:45;101648.98;;;10.33;75.00
44044;BME280;29709;52.396;16.796;2023-03-21T02:00:03;101642.62;;;10.33;74.92
44044;BME280;29709;52.396;16.796;2023-03-21T02:03:24;101642.02;;;10.29;75.08
44044;BME280;29709;52.396;16.796;2023-03-21T02:10:12;101636.83;;;10.26;75.16
44044;BME280;29709;52.396;16.796;2023-03-21T02:13:26;101642.48;;;10.25;74.89
44044;BME280;29709;52.396;16.796;2023-03-21T02:16:47;101643.62;;;10.12;75.26
44044;BME280;29709;52.396;16.796;2023-03-21T02:30:34;101644.18;;;10.06;75.48
44044;BME280;29709;52.396;16.796;2023-03-21T02:34:00;101641.73;;;10.13;74.92
44044;BME280;29709;52.396;16.796;2023-03-21T02:44:19;101639.13;;;10.02;74.62
44044;BME280;29709;52.396;16.796;2023-03-21T02:47:43;101640.41;;;9.98;75.13
44044;BME280;29709;52.396;16.796;2023-03-21T02:51:01;101640.26;;;9.99;75.18
44044;BME280;29709;52.396;16.796;2023-03-21T02:54:18;101637.96;;;9.95;75.07
44044;BME280;29709;52.396;16.796;2023-03-21T02:57:33;101644.89;;;9.99;74.59
44044;BME280;29709;52.396;16.796;2023-03-21T03:00:47;101637.82;;;9.96;74.70
44044;BME280;29709;52.396;16.796;2023-03-21T03:04:01;101643.30;;;9.96;75.39
44044;BME280;29709;52.396;16.796;2023-03-21T03:17:37;101646.92;;;10.06;75.33
44044;BME280;29709;52.396;16.796;2023-03-21T03:24:21;101649.97;;;10.03;75.07
44044;BME280;29709;52.396;16.796;2023-03-21T03:27:40;101650.84;;;10.04;75.48
44044;BME280;29709;52.396;16.796;2023-03-21T03:30:55;101646.21;;;10.04;75.32
44044;BME280;29709;52.396;16.796;2023-03-21T03:34:15;101654.45;;;10.04;75.18
44044;BME280;29709;52.396;16.796;2023-03-21T03:37:34;101652.26;;;9.98;75.66
44044;BME280;29709;52.396;16.796;2023-03-21T03:41:07;101657.19;;;9.95;74.85
44044;BME280;29709;52.396;16.796;2023-03-21T03:44:15;101645.03;;;9.88;76.26
44044;BME280;29709;52.396;16.796;2023-03-21T03:47:43;101653.12;;;9.89;75.37
44044;BME280;29709;52.396;16.796;2023-03-21T03:50:55;101660.49;;;9.89;75.28
44044;BME280;29709;52.396;16.796;2023-03-21T03:54:19;101654.88;;;9.90;75.64
44044;BME280;29709;52.396;16.796;2023-03-21T03:57:35;101648.65;;;9.88;75.82
44044;BME280;29709;52.396;16.796;2023-03-21T04:00:49;101657.89;;;9.87;75.31
44044;BME280;29709;52.396;16.796;2023-03-21T04:04:03;101658.19;;;9.84;75.65
44044;BME280;29709;52.396;16.796;2023-03-21T04:07:16;101656.45;;;9.83;76.65
44044;BME280;29709;52.396;16.796;2023-03-21T04:10:29;101661.65;;;9.86;76.68
44044;BME280;29709;52.396;16.796;2023-03-21T04:13:42;101652.70;;;9.84;76.47
44044;BME280;29709;52.396;16.796;2023-03-21T04:16:56;101667.60;;;9.91;75.70
44044;BME280;29709;52.396;16.796;2023-03-21T04:20:09;101661.51;;;9.88;75.84
44044;BME280;29709;52.396;16.796;2023-03-21T04:23:23;101665.11;;;9.88;75.81
44044;BME280;29709;52.396;16.796;2023-03-21T04:26:36;101664.39;;;9.86;75.37
44044;BME280;29709;52.396;16.796;2023-03-21T04:29:50;101670.18;;;9.83;76.63
44044;BME280;29709;52.396;16.796;2023-03-21T04:33:04;101665.70;;;9.82;75.80
44044;BME280;29709;52.396;16.796;2023-03-21T04:36:17;101669.46;;;9.81;75.83
44044;BME280;29709;52.396;16.796;2023-03-21T04:39:39;101670.88;;;9.75;76.21
44044;BME280;29709;52.396;16.796;2023-03-21T04:42:52;101672.62;;;9.76;76.40
44044;BME280;29709;52.396;16.796;2023-03-21T04:46:06;101679.27;;;9.74;77.20
44044;BME280;29709;52.396;16.796;2023-03-21T04:49:19;101669.30;;;9.73;77.80
44044;BME280;29709;52.396;16.796;2023-03-21T04:52:33;101674.49;;;9.76;76.53
44044;BME280;29709;52.396;16.796;2023-03-21T04:55:46;101678.25;;;9.75;76.44
44044;BME280;29709;52.396;16.796;2023-03-21T04:59:06;101673.77;;;9.74;76.36
44044;BME280;29709;52.396;16.796;2023-03-21T05:02:19;101675.52;;;9.75;77.35
44044;BME280;29709;52.396;16.796;2023-03-21T05:05:36;101681.87;;;9.75;76.32
44044;BME280;29709;52.396;16.796;2023-03-21T05:08:50;101681.00;;;9.75;76.69
44044;BME280;29709;52.396;16.796;2023-03-21T05:12:04;101683.02;;;9.73;76.50
44044;BME280;29709;52.396;16.796;2023-03-21T05:15:17;101681.29;;;9.72;76.86
44044;BME280;29709;52.396;16.796;2023-03-21T05:18:30;101679.41;;;9.72;76.55
44044;BME280;29709;52.396;16.796;2023-03-21T05:21:50;101685.91;;;9.71;76.66
44044;BME280;29709;52.396;16.796;2023-03-21T05:25:04;101682.56;;;9.68;77.10
44044;BME280;29709;52.396;16.796;2023-03-21T05:28:18;101682.70;;;9.66;77.25
44044;BME280;29709;52.396;16.796;2023-03-21T05:31:31;101687.77;;;9.61;77.89
44044;BME280;29709;52.396;16.796;2023-03-21T05:34:44;101687.77;;;9.61;77.42
44044;BME280;29709;52.396;16.796;2023-03-21T05:37:57;101688.49;;;9.63;77.63
44044;BME280;29709;52.396;16.796;2023-03-21T05:41:12;101696.58;;;9.65;77.48
44044;BME280;29709;52.396;16.796;2023-03-21T05:44:26;101693.54;;;9.68;78.61
44044;BME280;29709;52.396;16.796;2023-03-21T05:47:39;101690.54;;;9.71;77.52
44044;BME280;29709;52.396;16.796;2023-03-21T05:50:53;101697.05;;;9.70;77.59
44044;BME280;29709;52.396;16.796;2023-03-21T05:54:06;101697.91;;;9.70;79.40
44044;BME280;29709;52.396;16.796;2023-03-21T05:57:19;101704.84;;;9.74;78.21
44044;BME280;29709;52.396;16.796;2023-03-21T06:00:33;101710.64;;;9.81;78.99
44044;BME280;29709;52.396;16.796;2023-03-21T06:03:47;101708.47;;;9.84;78.83
44044;BME280;29709;52.396;16.796;2023-03-21T06:07:00;101707.05;;;9.90;79.34
44044;BME280;29709;52.396;16.796;2023-03-21T06:10:13;101713.69;;;9.97;79.96
44044;BME280;29709;52.396;16.796;2023-03-21T06:13:27;101713.69;;;9.97;78.06
44044;BME280;29709;52.396;16.796;2023-03-21T06:16:44;101711.81;;;9.98;79.27
44044;BME280;29709;52.396;16.796;2023-03-21T06:19:58;101716.03;;;10.02;78.00
44044;BME280;29709;52.396;16.796;2023-03-21T06:23:13;101717.45;;;9.96;77.84
44044;BME280;29709;52.396;16.796;2023-03-21T06:26:27;101712.41;;;9.92;79.51
44044;BME280;29709;52.396;16.796;2023-03-21T06:29:40;101713.69;;;9.97;79.48
44044;BME280;29709;52.396;16.796;2023-03-21T06:32:54;101719.91;;;9.99;78.29
44044;BME280;29709;52.396;16.796;2023-03-21T06:36:08;101716.15;;;10.00;79.12
44044;BME280;29709;52.396;16.796;2023-03-21T06:39:22;101720.52;;;10.03;78.41
44044;BME280;29709;52.396;16.796;2023-03-21T06:42:35;101717.16;;;9.99;79.76
44044;BME280;29709;52.396;16.796;2023-03-21T06:45:48;101723.81;;;9.97;78.77
44044;BME280;29709;52.396;16.796;2023-03-21T06:49:02;101723.52;;;10.00;79.32
44044;BME280;29709;52.396;16.796;2023-03-21T06:52:16;101717.16;;;9.99;78.88
44044;BME280;29709;52.396;16.796;2023-03-21T06:55:29;101724.12;;;10.03;78.83
44044;BME280;29709;52.396;16.796;2023-03-21T06:58:42;101726.16;;;10.01;79.57
44044;BME280;29709;52.396;16.796;2023-03-21T07:01:56;101724.98;;;10.04;79.53
44044;BME280;29709;52.396;16.796;2023-03-21T07:05:09;101732.78;;;10.08;78.77
44044;BME280;29709;52.396;16.796;2023-03-21T07:08:23;101728.31;;;10.07;79.32
44044;BME280;29709;52.396;16.796;2023-03-21T07:11:36;101740.02;;;10.09;78.63
44044;BME280;29709;52.396;16.796;2023-03-21T07:14:50;101741.75;;;10.10;79.35
44044;BME280;29709;52.396;16.796;2023-03-21T07:18:04;101734.11;;;10.14;78.59
44044;BME280;29709;52.396;16.796;2023-03-21T07:21:18;101743.52;;;10.11;78.42
44044;BME280;29709;52.396;16.796;2023-03-21T07:24:31;101753.77;;;10.19;78.92
44044;BME280;29709;52.396;16.796;2023-03-21T07:27:44;101751.20;;;10.27;78.81
44044;BME280;29709;52.396;16.796;2023-03-21T07:31:03;101754.41;;;10.32;78.03
44044;BME280;29709;52.396;16.796;2023-03-21T07:34:18;101761.04;;;10.30;78.39
44044;BME280;29709;52.396;16.796;2023-03-21T07:37:38;101755.84;;;10.27;78.94
44044;BME280;29709;52.396;16.796;2023-03-21T07:40:52;101765.80;;;10.28;78.78
44044;BME280;29709;52.396;16.796;2023-03-21T07:44:05;101765.52;;;10.31;78.92
44044;BME280;29709;52.396;16.796;2023-03-21T07:47:18;101761.34;;;10.36;78.85
44044;BME280;29709;52.396;16.796;2023-03-21T07:50:32;101759.47;;;10.47;78.63
44044;BME280;29709;52.396;16.796;2023-03-21T07:53:45;101765.12;;;10.55;78.76
44044;BME280;29709;52.396;16.796;2023-03-21T07:57:01;101766.25;;;10.62;78.09
44044;BME280;29709;52.396;16.796;2023-03-21T08:00:15;101762.52;;;10.63;77.61
44044;BME280;29709;52.396;16.796;2023-03-21T08:03:36;101756.88;;;10.64;77.49
44044;BME280;29709;52.396;16.796;2023-03-21T08:06:49;101758.87;;;10.62;77.44
44044;BME280;29709;52.396;16.796;2023-03-21T08:10:03;101769.60;;;10.65;77.40
44044;BME280;29709;52.396;16.796;2023-03-21T08:13:16;101761.51;;;10.64;77.43
44044;BME280;29709;52.396;16.796;2023-03-21T08:16:30;101772.35;;;10.75;77.62
44044;BME280;29709;52.396;16.796;2023-03-21T08:19:43;101764.66;;;10.69;77.14
44044;BME280;29709;52.396;16.796;2023-03-21T08:22:57;101772.77;;;10.70;77.65
44044;BME280;29709;52.396;16.796;2023-03-21T08:26:10;101776.68;;;10.68;77.42
44044;BME280;29709;52.396;16.796;2023-03-21T08:29:31;101772.62;;;10.72;77.21
44044;BME280;29709;52.396;16.796;2023-03-21T08:32:44;101779.42;;;10.78;77.57
44044;BME280;29709;52.396;16.796;2023-03-21T08:35:58;101786.35;;;10.91;77.11
44044;BME280;29709;52.396;16.796;2023-03-21T08:39:12;101784.20;;;10.95;76.84
44044;BME280;29709;52.396;16.796;2023-03-21T08:42:25;101793.15;;;11.07;77.06
44044;BME280;29709;52.396;16.796;2023-03-21T08:45:40;101793.13;;;11.16;76.58
44044;BME280;29709;52.396;16.796;2023-03-21T08:48:53;101797.48;;;11.19;76.21
44044;BME280;29709;52.396;16.796;2023-03-21T08:52:07;101791.97;;;11.19;75.78
44044;BME280;29709;52.396;16.796;2023-03-21T08:55:21;101793.85;;;11.18;75.67
44044;BME280;29709;52.396;16.796;2023-03-21T08:58:34;101789.64;;;11.14;76.13
44044;BME280;29709;52.396;16.796;2023-03-21T09:01:48;101797.48;;;11.19;76.33
44044;BME280;29709;52.396;16.796;2023-03-21T09:05:01;101796.84;;;11.35;76.85
44044;BME280;29709;52.396;16.796;2023-03-21T09:08:19;101796.62;;;11.55;75.82
44044;BME280;29709;52.396;16.796;2023-03-21T09:11:35;101801.38;;;11.63;74.53
44044;BME280;29709;52.396;16.796;2023-03-21T09:14:48;101800.20;;;11.66;74.87
44044;BME280;29709;52.396;16.796;2023-03-21T09:18:01;101801.20;;;11.74;74.19
44044;BME280;29709;52.396;16.796;2023-03-21T09:21:29;101789.74;;;11.79;74.32
44044;BME280;29709;52.396;16.796;2023-03-21T09:24:46;101804.26;;;11.81;74.35
44044;BME280;29709;52.396;16.796;2023-03-21T09:28:01;101800.16;;;11.85;74.11
44044;BME280;29709;52.396;16.796;2023-03-21T09:31:17;101808.38;;;11.95;72.85
44044;BME280;29709;52.396;16.796;2023-03-21T09:34:35;101802.42;;;11.99;73.88
44044;BME280;29709;52.396;16.796;2023-03-21T09:37:53;101811.84;;;11.97;72.94
44044;BME280;29709;52.396;16.796;2023-03-21T09:48:00;101803.95;;;12.11;72.90
44044;BME280;29709;52.396;16.796;2023-03-21T09:51:16;101795.63;;;12.21;72.22
44044;BME280;29709;52.396;16.796;2023-03-21T09:54:37;101795.08;;;12.35;72.26
44044;BME280;29709;52.396;16.796;2023-03-21T09:58:18;101789.34;;;12.47;71.10
44044;BME280;29709;52.396;16.796;2023-03-21T10:01:26;101794.30;;;12.61;71.37
44044;BME280;29709;52.396;16.796;2023-03-21T10:04:44;101798.58;;;12.73;71.39
44044;BME280;29709;52.396;16.796;2023-03-21T10:11:31;101790.34;;;12.99;70.32
44044;BME280;29709;52.396;16.796;2023-03-21T10:14:55;101786.13;;;13.13;70.00
44044;BME280;29709;52.396;16.796;2023-03-21T10:18:23;101787.09;;;13.21;69.98
44044;BME280;29709;52.396;16.796;2023-03-21T10:21:37;101788.95;;;13.39;69.52
44044;BME280;29709;52.396;16.796;2023-03-21T10:24:51;101784.88;;;13.51;69.75
44044;BME280;29709;52.396;16.796;2023-03-21T10:28:06;101781.20;;;13.42;68.85
44044;BME280;29709;52.396;16.796;2023-03-21T10:31:23;101783.48;;;13.47;67.90
44044;BME280;29709;52.396;16.796;2023-03-21T10:34:48;101789.70;;;13.49;68.54
44044;BME280;29709;52.396;16.796;2023-03-21T10:38:02;101796.31;;;13.56;67.83
44044;BME280;29709;52.396;16.796;2023-03-21T10:41:16;101789.08;;;13.63;67.53
44044;BME280;29709;52.396;16.796;2023-03-21T10:44:31;101786.15;;;13.65;67.19
44044;BME280;29709;52.396;16.796;2023-03-21T10:47:49;101780.72;;;13.81;63.84
44044;BME280;29709;52.396;16.796;2023-03-21T10:51:06;101783.57;;;13.97;65.95
44044;BME280;29709;52.396;16.796;2023-03-21T10:54:25;101785.95;;;13.92;64.04
44044;BME280;29709;52.396;16.796;2023-03-21T10:57:40;101788.23;;;13.97;63.13
44044;BME280;29709;52.396;16.796;2023-03-21T11:01:00;101788.06;;;13.98;64.95
44044;BME280;29709;52.396;16.796;2023-03-21T11:04:19;101783.58;;;14.05;63.55
44044;BME280;29709;52.396;16.796;2023-03-21T11:07:34;101780.36;;;14.18;62.53
44044;BME280;29709;52.396;16.796;2023-03-21T11:14:26;101775.55;;;14.28;63.95
44044;BME280;29709;52.396;16.796;2023-03-21T11:17:39;101772.05;;;14.26;63.32
44044;BME280;29709;52.396;16.796;2023-03-21T11:21:06;101767.41;;;14.19;62.99
44044;BME280;29709;52.396;16.796;2023-03-21T11:24:19;101767.71;;;14.15;61.96
44044;BME280;29709;52.396;16.796;2023-03-21T11:27:32;101758.95;;;14.28;62.20
44044;BME280;29709;52.396;16.796;2023-03-21T11:30:53;101760.54;;;14.39;62.75
44044;BME280;29709;52.396;16.796;2023-03-21T11:34:19;101759.70;;;14.47;62.93
44044;BME280;29709;52.396;16.796;2023-03-21T11:37:33;101758.09;;;14.36;60.59
44044;BME280;29709;52.396;16.796;2023-03-21T11:40:57;101746.70;;;14.31;61.96
44044;BME280;29709;52.396;16.796;2023-03-21T11:47:37;101741.50;;;14.28;62.01
44044;BME280;29709;52.396;16.796;2023-03-21T11:50:57;101739.78;;;14.43;61.51
44044;BME280;29709;52.396;16.796;2023-03-21T11:54:19;101733.62;;;14.49;59.70
44044;BME280;29709;52.396;16.796;2023-03-21T11:58:02;101732.05;;;14.55;60.26
44044;BME280;29709;52.396;16.796;2023-03-21T12:04:37;101731.88;;;14.64;57.74
44044;BME280;29709;52.396;16.796;2023-03-21T12:11:28;101731.38;;;14.93;58.75
44044;BME280;29709;52.396;16.796;2023-03-21T12:14:56;101727.20;;;14.89;58.49
44044;BME280;29709;52.396;16.796;2023-03-21T12:25:10;101720.47;;;14.67;59.16
44044;BME280;29709;52.396;16.796;2023-03-21T12:32:02;101714.58;;;14.79;58.84
44044;BME280;29709;52.396;16.796;2023-03-21T12:38:51;101709.76;;;14.72;57.79
44044;BME280;29709;52.396;16.796;2023-03-21T12:45:38;101704.37;;;14.87;58.30
44044;BME280;29709;52.396;16.796;2023-03-21T12:52:25;101695.05;;;14.56;59.13
44044;BME280;29709;52.396;16.796;2023-03-21T12:55:41;101696.57;;;14.42;59.51
44044;BME280;29709;52.396;16.796;2023-03-21T12:59:05;101686.55;;;14.41;59.92
44044;BME280;29709;52.396;16.796;2023-03-21T13:02:30;101693.30;;;14.38;59.88
44044;BME280;29709;52.396;16.796;2023-03-21T13:05:52;101685.56;;;14.50;60.15
44044;BME280;29709;52.396;16.796;2023-03-21T13:09:19;101684.85;;;14.64;60.35
44044;BME280;29709;52.396;16.796;2023-03-21T13:12:43;101673.95;;;14.47;59.51
44044;BME280;29709;52.396;16.796;2023-03-21T13:16:05;101675.52;;;14.49;60.48
44044;BME280;29709;52.396;16.796;2023-03-21T13:19:27;101667.93;;;14.51;60.17
44044;BME280;29709;52.396;16.796;2023-03-21T13:22:46;101674.98;;;14.46;59.98
44044;BME280;29709;52.396;16.796;2023-03-21T13:25:59;101662.68;;;14.32;60.25
44044;BME280;29709;52.396;16.796;2023-03-21T13:32:39;101663.54;;;14.08;61.06
44044;BME280;29709;52.396;16.796;2023-03-21T13:35:58;101655.42;;;14.23;61.07
44044;BME280;29709;52.396;16.796;2023-03-21T13:39:23;101649.73;;;14.32;61.26
44044;BME280;29709;52.396;16.796;2023-03-21T13:42:44;101649.54;;;14.26;60.88
44044;BME280;29709;52.396;16.796;2023-03-21T13:46:08;101644.55;;;14.29;60.88
44044;BME280;29709;52.396;16.796;2023-03-21T13:49:38;101646.77;;;14.26;60.62
44044;BME280;29709;52.396;16.796;2023-03-21T13:56:21;101643.52;;;14.38;59.91
44044;BME280;29709;52.396;16.796;2023-03-21T13:59:40;101649.02;;;14.22;59.50
44044;BME280;29709;52.396;16.796;2023-03-21T14:03:04;101641.07;;;14.11;60.02
44044;BME280;29709;52.396;16.796;2023-03-21T14:06:29;101640.03;;;14.12;60.78
44044;BME280;29709;52.396;16.796;2023-03-21T14:09:48;101642.95;;;14.02;60.21
44044;BME280;29709;52.396;16.796;2023-03-21T14:13:07;101637.23;;;13.96;60.42
44044;BME280;29709;52.396;16.796;2023-03-21T14:16:25;101629.30;;;14.01;60.43
44044;BME280;29709;52.396;16.796;2023-03-21T14:19:40;101635.19;;;14.14;60.05
44044;BME280;29709;52.396;16.796;2023-03-21T14:22:54;101633.47;;;14.13;59.76
44044;BME280;29709;52.396;16.796;2023-03-21T14:26:10;101623.26;;;14.13;60.14
44044;BME280;29709;52.396;16.796;2023-03-21T14:29:31;101625.85;;;14.15;59.71
44044;BME280;29709;52.396;16.796;2023-03-21T14:32:46;101622.76;;;14.10;59.89
44044;BME280;29709;52.396;16.796;2023-03-21T14:36:04;101617.22;;;14.02;60.54
44044;BME280;29709;52.396;16.796;2023-03-21T14:39:26;101613.94;;;13.98;60.17
44044;BME280;29709;52.396;16.796;2023-03-21T14:42:46;101603.73;;;13.91;60.06
44044;BME280;29709;52.396;16.796;2023-03-21T14:46:00;101606.51;;;13.99;60.15
44044;BME280;29709;52.396;16.796;2023-03-21T14:49:24;101604.62;;;14.07;60.33
44044;BME280;29709;52.396;16.796;2023-03-21T14:52:40;101606.66;;;14.05;60.26
44044;BME280;29709;52.396;16.796;2023-03-21T14:59:21;101606.51;;;14.15;60.11
44044;BME280;29709;52.396;16.796;2023-03-21T15:02:37;101612.38;;;14.04;60.03
44044;BME280;29709;52.396;16.796;2023-03-21T15:05:54;101603.73;;;13.91;60.41
44044;BME280;29709;52.396;16.796;2023-03-21T15:09:15;101601.30;;;13.79;60.00
44044;BME280;29709;52.396;16.796;2023-03-21T15:12:30;101606.80;;;13.71;60.69
44044;BME280;29709;52.396;16.796;2023-03-21T15:15:45;101597.30;;;13.74;60.93
44044;BME280;29709;52.396;16.796;2023-03-21T15:19:04;101595.05;;;13.69;60.71
44044;BME280;29709;52.396;16.796;2023-03-21T15:25:44;101592.79;;;13.56;61.22
44044;BME280;29709;52.396;16.796;2023-03-21T15:28:58;101590.34;;;13.53;61.28
44044;BME280;29709;52.396;16.796;2023-03-21T15:32:18;101604.16;;;13.53;61.76
44044;BME280;29709;52.396;16.796;2023-03-21T15:35:40;101598.80;;;13.52;61.77
44044;BME280;29709;52.396;16.796;2023-03-21T15:38:55;101595.86;;;13.53;61.90
44044;BME280;29709;52.396;16.796;2023-03-21T15:52:24;101592.52;;;13.34;62.31
44044;BME280;29709;52.396;16.796;2023-03-21T15:55:43;101593.24;;;13.36;62.93
44044;BME280;29709;52.396;16.796;2023-03-21T15:59:03;101592.38;;;13.35;62.76
44044;BME280;29709;52.396;16.796;2023-03-21T16:02:20;101594.97;;;13.37;62.75
44044;BME280;29709;52.396;16.796;2023-03-21T16:05:34;101597.73;;;13.37;62.88
44044;BME280;29709;52.396;16.796;2023-03-21T16:08:50;101590.97;;;13.31;63.15
44044;BME280;29709;52.396;16.796;2023-03-21T16:12:12;101584.59;;;13.31;63.48
44044;BME280;29709;52.396;16.796;2023-03-21T16:15:27;101581.30;;;13.27;63.31
44044;BME280;29709;52.396;16.796;2023-03-21T16:18:40;101579.23;;;13.29;63.58
44044;BME280;29709;52.396;16.796;2023-03-21T16:21:53;101569.40;;;13.26;63.73
44044;BME280;29709;52.396;16.796;2023-03-21T16:25:07;101577.84;;;13.25;63.90
44044;BME280;29709;52.396;16.796;2023-03-21T16:28:22;101583.68;;;13.22;63.86
44044;BME280;29709;52.396;16.796;2023-03-21T16:31:36;101578.25;;;13.12;64.58
44044;BME280;29709;52.396;16.796;2023-03-21T16:34:50;101573.26;;;13.08;64.63
44044;BME280;29709;52.396;16.796;2023-03-21T16:38:06;101580.45;;;13.00;64.88
44044;BME280;29709;52.396;16.796;2023-03-21T16:41:21;101580.95;;;12.96;64.86
44044;BME280;29709;52.396;16.796;2023-03-21T16:44:35;101581.99;;;12.95;65.06
44044;BME280;29709;52.396;16.796;2023-03-21T16:47:51;101580.27;;;12.94;64.56
44044;BME280;29709;52.396;16.796;2023-03-21T16:51:04;101579.54;;;12.92;64.52
44044;BME280;29709;52.396;16.796;2023-03-21T16:54:18;101575.57;;;12.86;64.69
44044;BME280;29709;52.396;16.796;2023-03-21T16:57:38;101572.42;;;12.81;64.70
44044;BME280;29709;52.396;16.796;2023-03-21T17:00:54;101569.99;;;12.78;65.21
44044;BME280;29709;52.396;16.796;2023-03-21T17:04:08;101576.55;;;12.77;65.41
44044;BME280;29709;52.396;16.796;2023-03-21T17:07:23;101568.05;;;12.70;65.54
44044;BME280;29709;52.396;16.796;2023-03-21T17:10:36;101574.59;;;12.69;66.10
44044;BME280;29709;52.396;16.796;2023-03-21T17:13:52;101574.59;;;12.69;65.79
44044;BME280;29709;52.396;16.796;2023-03-21T17:17:09;101578.03;;;12.63;65.91
44044;BME280;29709;52.396;16.796;2023-03-21T17:20:28;101568.16;;;12.61;66.18
44044;BME280;29709;52.396;16.796;2023-03-21T17:23:43;101573.84;;;12.59;66.58
44044;BME280;29709;52.396;16.796;2023-03-21T17:26:57;101570.02;;;12.52;66.82
44044;BME280;29709;52.396;16.796;2023-03-21T17:30:21;101573.09;;;12.49;67.26
44044;BME280;29709;52.396;16.796;2023-03-21T17:33:35;101585.48;;;12.45;67.17
44044;BME280;29709;52.396;16.796;2023-03-21T17:36:48;101579.44;;;12.41;67.39
44044;BME280;29709;52.396;16.796;2023-03-21T17:40:01;101582.19;;;12.41;67.65
44044;BME280;29709;52.396;16.796;2023-03-21T17:43:17;101583.22;;;12.40;67.82
44044;BME280;29709;52.396;16.796;2023-03-21T17:46:34;101582.33;;;12.40;67.62
44044;BME280;29709;52.396;16.796;2023-03-21T17:49:51;101578.70;;;12.39;67.49
44044;BME280;29709;52.396;16.796;2023-03-21T17:53:05;101582.66;;;12.37;67.45
44044;BME280;29709;52.396;16.796;2023-03-21T17:56:22;101587.47;;;12.35;68.14
44044;BME280;29709;52.396;16.796;2023-03-21T17:59:37;101582.12;;;12.33;68.05
44044;BME280;29709;52.396;16.796;2023-03-21T18:02:51;101580.70;;;12.29;67.94
44044;BME280;29709;52.396;16.796;2023-03-21T18:06:05;101587.23;;;12.28;67.97
44044;BME280;29709;52.396;16.796;2023-03-21T18:09:19;101591.35;;;12.24;68.14
44044;BME280;29709;52.396;16.796;2023-03-21T18:12:33;101587.41;;;12.27;68.68
44044;BME280;29709;52.396;16.796;2023-03-21T18:15:46;101589.86;;;12.30;68.24
44044;BME280;29709;52.396;16.796;2023-03-21T18:19:02;101585.91;;;12.32;68.41
44044;BME280;29709;52.396;16.796;2023-03-21T18:22:15;101597.95;;;12.31;68.18
44044;BME280;29709;52.396;16.796;2023-03-21T18:25:29;101592.91;;;12.27;67.80
44044;BME280;29709;52.396;16.796;2023-03-21T18:28:43;101598.26;;;12.28;67.97
44044;BME280;29709;52.396;16.796;2023-03-21T18:31:57;101593.61;;;12.29;68.02
44044;BME280;29709;52.396;16.796;2023-03-21T18:35:15;101586.37;;;12.28;67.91
44044;BME280;29709;52.396;16.796;2023-03-21T18:38:28;101591.20;;;12.26;68.03